Time;durP1;ratioP1;P1;durP2;ratioP2;P2;SDS_P1;SDS_P2;PMS_P1;PMS_P2;Temp;Humidity;BMP_temperature;BMP_pressure;BME280_temperature;BME280_humidity;BME280_pressure;Samples;Min_cycle;Max_cycle;Signal;HPM_P1;HPM_P2
2022/05/16 00:00:51;;;;;;;5.23;4.73;;;;;;;20.44;53.06;94997.66;5087214;28;20278;-78
2022/05/16 00:03:18;;;;;;;6.63;4.83;;;;;;;20.49;53.03;95003.09;5070817;28;20205;-78
2022/05/16 00:05:45;;;;;;;6.23;5.67;;;;;;;20.52;53.02;95007.91;5070495;28;20193;-78
2022/05/16 00:08:11;;;;;;;4.83;4.33;;;;;;;20.51;53.13;95011.53;5071392;28;20191;-79
2022/05/16 00:10:38;;;;;;;5.23;4.40;;;;;;;20.48;53.20;95004.09;5072502;28;20190;-78
2022/05/16 00:13:05;;;;;;;5.97;4.90;;;;;;;20.47;53.18;95006.88;5072251;28;20190;-78
2022/05/16 00:15:32;;;;;;;5.13;4.53;;;;;;;20.32;53.27;94975.78;5072125;28;20190;-79
2022/05/16 00:18:00;;;;;;;4.83;4.33;;;;;;;20.17;53.32;94962.91;5072030;28;20217;-79
2022/05/16 00:20:27;;;;;;;8.47;5.00;;;;;;;20.39;53.53;95000.03;5083761;28;20186;-78
2022/05/16 00:22:54;;;;;;;5.77;4.80;;;;;;;20.26;53.29;94981.75;5092386;28;20200;-79
2022/05/16 00:25:21;;;;;;;5.43;4.93;;;;;;;20.36;53.50;94994.41;5092139;28;20186;-77
2022/05/16 00:27:48;;;;;;;4.77;4.37;;;;;;;20.20;53.61;94978.09;5091510;28;20640;-78
2022/05/16 00:30:19;;;;;;;5.20;4.70;;;;;;;20.25;53.83;94991.34;5092678;28;20201;-77
2022/05/16 00:32:48;;;;;;;5.63;5.13;;;;;;;20.28;53.86;94995.34;5089660;28;20189;-79
2022/05/16 00:35:17;;;;;;;6.13;4.47;;;;;;;20.27;53.85;94994.53;5091542;28;20620;-78
2022/05/16 00:37:44;;;;;;;5.70;4.83;;;;;;;20.23;53.77;94995.91;5089683;28;20601;-77
2022/05/16 00:40:12;;;;;;;5.83;5.27;;;;;;;20.13;54.03;94982.47;5090651;28;20182;-78
2022/05/16 00:42:40;;;;;;;5.27;4.77;;;;;;;20.06;53.98;94973.81;5090555;28;20197;-77
2022/05/16 00:45:09;;;;;;;5.27;4.57;;;;;;;20.17;53.93;95007.06;5090495;28;20194;-77
2022/05/16 00:47:36;;;;;;;5.57;4.43;;;;;;;20.14;54.21;94993.66;5091078;28;20196;-77
2022/05/16 00:50:05;;;;;;;6.20;4.90;;;;;;;20.12;54.09;95001.66;5071108;28;20202;-78
2022/05/16 00:52:36;;;;;;;5.20;4.70;;;;;;;20.03;54.27;94982.81;5073109;28;20194;-78
2022/05/16 00:55:07;;;;;;;5.33;4.40;;;;;;;20.07;54.37;94987.59;5071854;28;20192;-78
2022/05/16 00:57:37;;;;;;;4.73;4.33;;;;;;;20.04;54.36;94994.78;5069762;28;20728;-78
2022/05/16 01:00:09;;;;;;;7.50;4.77;;;;;;;19.69;54.34;94941.19;5070045;28;20190;-78
2022/05/16 01:05:24;;;;;;;5.13;4.63;;;;;;;19.92;54.53;94985.91;5070184;28;20177;-79
2022/05/16 01:07:52;;;;;;;5.83;4.60;;;;;;;19.77;54.52;94965.25;5070864;28;20197;-79
2022/05/16 01:10:22;;;;;;;4.67;4.23;;;;;;;19.57;54.73;94938.28;5070309;28;20191;-78
2022/05/16 01:12:51;;;;;;;5.23;4.73;;;;;;;19.83;54.67;94971.47;5069913;28;20204;-78
2022/05/16 01:15:28;;;;;;;5.03;4.53;;;;;;;19.88;54.74;94989.88;5069561;28;20201;-78
2022/05/16 01:17:55;;;;;;;4.70;4.30;;;;;;;19.60;54.82;94942.28;5069591;28;20225;-78
2022/05/16 01:20:22;;;;;;;6.70;5.00;;;;;;;19.84;54.92;94977.44;5069937;28;20182;-79
2022/05/16 01:22:53;;;;;;;6.13;4.47;;;;;;;19.81;54.83;94983.81;5069453;28;20190;-78
2022/05/16 01:25:27;;;;;;;5.27;4.30;;;;;;;19.79;54.65;94978.03;5070164;28;20638;-78
2022/05/16 01:27:57;;;;;;;4.67;4.27;;;;;;;19.77;54.84;94983.41;5069424;28;20189;-78
2022/05/16 01:30:27;;;;;;;4.37;3.97;;;;;;;18.97;54.90;94859.16;5069443;28;20688;-78
2022/05/16 01:32:54;;;;;;;5.53;4.23;;;;;;;19.74;54.82;94982.97;5068984;28;20198;-78
2022/05/16 01:35:23;;;;;;;5.17;3.90;;;;;;;19.70;54.91;94987.72;5069850;28;20194;-79
2022/05/16 01:40:36;;;;;;;5.17;4.57;;;;;;;19.55;55.00;94967.00;5069686;28;20181;-77
2022/05/16 01:43:04;;;;;;;4.40;4.00;;;;;;;19.53;55.30;94974.19;5070863;28;20182;-77
2022/05/16 01:45:31;;;;;;;5.83;4.33;;;;;;;19.64;55.24;94985.88;5091316;28;20190;-76
2022/05/16 01:47:59;;;;;;;4.70;4.27;;;;;;;19.44;55.30;94966.72;5093049;28;20198;-79
2022/05/16 01:50:26;;;;;;;4.57;4.17;;;;;;;19.44;55.47;94970.09;5093740;28;20373;-78
2022/05/16 01:52:54;;;;;;;5.80;4.20;;;;;;;19.51;55.45;94988.31;5091911;28;20193;-78
2022/05/16 01:55:21;;;;;;;4.57;4.17;;;;;;;19.40;55.48;94976.66;5093541;28;20189;-79
2022/05/16 01:57:48;;;;;;;7.20;4.47;;;;;;;19.53;55.50;94997.53;5085743;28;20217;-77
2022/05/16 02:00:17;;;;;;;7.83;4.30;;;;;;;19.38;55.85;94973.41;5086745;28;20277;-77
2022/05/16 02:02:45;;;;;;;5.97;3.87;;;;;;;19.36;55.62;94982.38;5092915;28;20953;-79
2022/05/16 02:05:15;;;;;;;4.50;4.00;;;;;;;19.39;55.81;94990.63;5093624;28;20280;-78
2022/05/16 02:07:42;;;;;;;4.67;4.27;;;;;;;19.24;55.64;94969.91;5093150;28;20213;-79
2022/05/16 02:10:11;;;;;;;5.57;4.37;;;;;;;19.16;55.73;94966.63;5093677;28;20216;-78
2022/05/16 02:12:38;;;;;;;5.53;4.03;;;;;;;19.38;55.64;94988.19;5074119;28;20669;-79
2022/05/16 02:15:08;;;;;;;4.13;3.73;;;;;;;19.42;55.65;95002.38;5072996;28;20281;-78
2022/05/16 02:17:35;;;;;;;5.50;4.20;;;;;;;19.38;55.58;95004.53;5072729;28;20237;-77
2022/05/16 02:20:02;;;;;;;4.53;4.13;;;;;;;19.37;55.51;94999.56;5072456;28;20192;-78
2022/05/16 02:25:15;;;;;;;4.20;3.80;;;;;;;19.32;55.44;94997.50;5072710;28;20197;-78
2022/05/16 02:27:43;;;;;;;5.07;3.80;;;;;;;19.30;55.48;94995.13;5082992;28;20198;-79
2022/05/16 02:30:11;;;;;;;5.50;3.97;;;;;;;19.28;55.45;95004.06;5084207;28;20194;-77
2022/05/16 02:32:41;;;;;;;7.33;3.90;;;;;;;19.26;55.53;95003.44;5079927;28;20195;-78
2022/05/16 02:35:10;;;;;;;6.63;4.03;;;;;;;19.24;55.55;94995.03;5078710;28;20228;-78
2022/05/16 02:37:37;;;;;;;8.53;3.73;;;;;;;19.21;55.49;94996.22;5072692;28;20228;-78
2022/05/16 02:40:04;;;;;;;5.03;4.00;;;;;;;18.94;55.64;94964.00;5072231;28;20293;-78
2022/05/16 02:42:33;;;;;;;6.37;4.43;;;;;;;18.73;55.78;94931.06;5072403;28;20193;-78
2022/05/16 02:45:00;;;;;;;3.67;3.37;;;;;;;19.16;55.63;94989.94;5071834;28;20198;-78
2022/05/16 02:47:27;;;;;;;3.73;3.33;;;;;;;19.14;55.64;94995.34;5070883;28;20221;-77
2022/05/16 02:49:54;;;;;;;4.83;3.73;;;;;;;19.07;55.89;94986.66;5092407;28;20186;-78
2022/05/16 02:52:21;;;;;;;4.23;3.70;;;;;;;19.10;55.80;94991.50;5092248;28;20657;-78
2022/05/16 02:54:48;;;;;;;5.40;3.67;;;;;;;19.08;55.89;94990.84;5091894;28;20197;-79
2022/05/16 02:57:15;;;;;;;7.03;4.20;;;;;;;18.87;55.96;94962.31;5082779;28;20996;-78
2022/05/16 02:59:44;;;;;;;7.30;4.00;;;;;;;19.07;55.92;94991.06;5071801;28;20691;-78
2022/05/16 03:02:12;;;;;;;6.07;4.50;;;;;;;19.05;56.08;94993.84;5072000;28;20198;-78
2022/05/16 03:04:41;;;;;;;7.37;4.53;;;;;;;19.03;56.20;94999.19;5073130;28;20186;-78
2022/05/16 03:07:08;;;;;;;5.10;4.60;;;;;;;18.95;56.27;94990.72;5091847;28;20285;-78
2022/05/16 03:09:35;;;;;;;7.30;4.57;;;;;;;18.74;56.50;94953.41;5091757;28;20285;-78
2022/05/16 03:12:02;;;;;;;5.10;4.50;;;;;;;19.00;56.44;94996.97;5091774;28;20197;-78
2022/05/16 03:14:29;;;;;;;5.67;4.93;;;;;;;18.94;56.35;94989.91;5091632;28;20221;-77
2022/05/16 03:16:57;;;;;;;5.73;4.30;;;;;;;19.00;56.39;94996.97;5091454;28;20679;-77
2022/05/16 03:19:24;;;;;;;5.83;4.70;;;;;;;18.63;56.60;94951.25;5091658;28;20217;-78
2022/05/16 03:21:51;;;;;;;4.77;4.27;;;;;;;18.99;56.81;95003.13;5091151;28;20193;-78
2022/05/16 03:24:18;;;;;;;7.27;4.50;;;;;;;19.01;56.87;95008.16;5081458;28;20185;-78
2022/05/16 03:26:45;;;;;;;5.50;4.53;;;;;;;19.00;56.80;95009.94;5071149;28;20193;-76
2022/05/16 03:29:13;;;;;;;5.33;4.27;;;;;;;19.00;57.08;95022.91;5071412;28;20190;-76
2022/05/16 03:31:41;;;;;;;4.67;4.17;;;;;;;18.88;56.83;95002.81;5079446;28;20191;-77
2022/05/16 03:34:10;;;;;;;9.13;4.40;;;;;;;18.66;56.83;94970.81;5072604;28;20669;-78
2022/05/16 03:36:38;;;;;;;9.20;4.53;;;;;;;18.95;56.64;95016.63;5071117;28;20198;-77
2022/05/16 03:41:50;;;;;;;6.03;4.53;;;;;;;19.05;56.67;95030.94;5070409;28;20200;-79
2022/05/16 03:44:18;;;;;;;5.23;4.70;;;;;;;19.07;56.61;95035.13;5071113;28;20213;-78
2022/05/16 03:46:45;;;;;;;9.17;4.60;;;;;;;18.92;56.65;95023.00;5070894;28;20224;-78
2022/05/16 03:49:13;;;;;;;7.17;4.60;;;;;;;19.09;56.65;95036.56;5070674;28;20187;-77
2022/05/16 03:51:40;;;;;;;7.20;4.40;;;;;;;19.03;56.59;95024.31;5057264;28;20210;-78
2022/05/16 03:54:07;;;;;;;5.43;4.50;;;;;;;18.36;56.51;94921.63;5050756;28;20598;-77
2022/05/16 03:56:34;;;;;;;4.83;4.30;;;;;;;19.17;56.30;95044.25;5054650;28;20228;-77
2022/05/16 03:59:01;;;;;;;7.60;4.20;;;;;;;19.12;56.59;95037.97;5070577;28;20211;-78
2022/05/16 04:01:28;;;;;;;4.63;4.13;;;;;;;19.22;56.83;95051.47;5059490;28;20282;-78
2022/05/16 04:03:56;;;;;;;6.63;4.60;;;;;;;19.16;56.43;95042.59;5050999;28;20195;-77
2022/05/16 04:06:24;;;;;;;6.37;4.73;;;;;;;19.27;56.51;95056.91;5050090;28;20202;-78
2022/05/16 04:08:52;;;;;;;7.47;5.40;;;;;;;19.28;56.78;95055.91;5050642;28;20187;-78
2022/05/16 04:11:19;;;;;;;6.57;5.23;;;;;;;19.32;56.77;95058.94;5050895;28;20205;-77
2022/05/16 04:13:47;;;;;;;9.03;5.57;;;;;;;19.36;56.76;95062.78;5050739;28;20198;-78
2022/05/16 04:16:14;;;;;;;8.20;5.10;;;;;;;19.00;56.60;95004.75;5050750;28;20301;-78
2022/05/16 04:18:44;;;;;;;8.60;7.23;;;;;;;19.34;56.74;95047.41;5049934;28;20233;-78
2022/05/16 04:21:11;;;;;;;7.07;6.37;;;;;;;19.45;57.09;95061.69;5067139;28;20178;-78
2022/05/16 04:23:42;;;;;;;8.53;7.37;;;;;;;19.26;56.94;95027.59;5090565;28;20208;-78
2022/05/16 04:26:10;;;;;;;9.87;7.17;;;;;;;19.53;57.02;95064.19;5087621;28;20212;-77
2022/05/16 04:28:39;;;;;;;10.13;7.80;;;;;;;19.58;56.78;95068.81;5068607;28;20231;-79
2022/05/16 04:31:06;;;;;;;10.23;9.13;;;;;;;19.48;56.92;95046.56;5081908;28;20569;-78
2022/05/16 04:33:35;;;;;;;16.57;9.23;;;;;;;19.53;57.18;95048.59;5080117;28;20208;-77
2022/05/16 04:36:02;;;;;;;14.13;12.67;;;;;;;19.68;57.22;95070.13;5069825;28;20186;-77
2022/05/16 04:38:29;;;;;;;14.63;12.33;;;;;;;19.75;57.13;95070.22;5070101;28;20241;-78
2022/05/16 04:43:42;;;;;;;13.50;10.53;;;;;;;19.86;57.07;95079.28;5070006;28;20190;-74
2022/05/16 04:46:09;;;;;;;13.83;10.37;;;;;;;19.44;57.12;94998.63;5069817;28;20224;-76
2022/05/16 04:48:36;;;;;;;16.27;11.47;;;;;;;19.93;57.12;95078.38;5070643;28;20248;-77
2022/05/16 04:51:03;;;;;;;21.13;13.10;;;;;;;19.85;56.95;95057.72;5070194;28;20627;-78
2022/05/16 04:53:30;;;;;;;14.33;12.83;;;;;;;19.73;56.88;95030.66;5070436;28;20187;-82
2022/05/16 04:55:59;;;;;;;17.03;15.40;;;;;;;20.12;56.79;95084.75;5070541;28;20236;-78
2022/05/16 04:58:26;;;;;;;11.67;10.47;;;;;;;19.99;56.59;95041.28;5070252;28;20233;-80
2022/05/16 05:00:53;;;;;;;10.57;8.60;;;;;;;20.34;57.76;95049.16;5070339;28;20183;-79
2022/05/16 05:03:20;;;;;;;9.83;8.50;;;;;;;20.93;59.04;95092.13;5071172;28;20194;-78
2022/05/16 05:05:47;;;;;;;11.70;7.07;;;;;;;21.35;59.87;95095.56;5070886;28;20193;-85
2022/05/16 05:08:13;;;;;;;13.03;7.47;;;;;;;21.53;60.00;95038.56;5071140;28;20202;-80
2022/05/16 05:16:12;;;;;;;7.97;5.95;;;;;;;24.08;58.39;95096.84;5072259;28;20323;-82
2022/05/16 05:18:40;;;;;;;10.43;5.60;;;;;;;24.63;56.59;95061.25;5072951;28;20723;-79
2022/05/16 05:21:08;;;;;;;11.80;5.40;;;;;;;25.68;54.96;95107.41;5075733;28;20190;-81
2022/05/16 05:23:35;;;;;;;8.27;5.65;;;;;;;26.47;53.02;95113.41;5075613;28;20569;-81
2022/05/16 05:26:02;;;;;;;8.05;5.57;;;;;;;27.28;51.35;95109.19;5075086;28;20190;-82
2022/05/16 05:28:30;;;;;;;7.93;4.50;;;;;;;28.08;49.90;95113.63;5075351;28;20186;-80
2022/05/16 05:30:57;;;;;;;7.05;5.07;;;;;;;28.84;48.01;95115.88;5074440;28;20191;-82
2022/05/16 05:33:24;;;;;;;4.07;3.67;;;;;;;29.61;46.39;95115.88;5074602;28;20198;-83
2022/05/16 05:35:51;;;;;;;9.35;4.45;;;;;;;30.33;44.83;95116.63;5074498;28;20183;-80
2022/05/16 05:38:18;;;;;;;5.82;3.92;;;;;;;31.05;43.00;95118.00;5073657;28;20210;-82
2022/05/16 05:40:45;;;;;;;10.02;4.68;;;;;;;31.38;42.09;95061.31;5073052;28;20209;-81
2022/05/16 05:43:12;;;;;;;7.18;4.90;;;;;;;32.40;40.64;95115.28;5073410;28;20198;-81
2022/05/16 05:45:40;;;;;;;12.48;4.53;;;;;;;33.07;39.22;95120.53;5073364;28;20626;-81
2022/05/16 05:48:08;;;;;;;11.05;4.55;;;;;;;33.69;38.19;95122.75;5073459;28;20201;-81
2022/05/16 05:50:34;;;;;;;6.18;4.35;;;;;;;34.28;37.24;95123.75;5073537;28;20646;-81
2022/05/16 05:53:01;;;;;;;4.97;3.78;;;;;;;34.73;36.31;95111.22;5074064;28;20206;-82
2022/05/16 05:55:28;;;;;;;6.03;4.03;;;;;;;35.21;35.27;95099.88;5073468;28;20198;-81
2022/05/16 05:57:56;;;;;;;4.75;3.45;;;;;;;35.92;34.41;95118.41;5073000;28;20194;-82
2022/05/16 06:00:23;;;;;;;8.75;3.60;;;;;;;35.65;33.64;94999.28;5072928;28;20197;-82
2022/05/16 06:02:52;;;;;;;8.13;3.78;;;;;;;36.83;32.74;95101.31;5073074;28;20204;-82
2022/05/16 06:05:23;;;;;;;6.95;3.42;;;;;;;37.44;32.34;95124.28;5072745;28;20190;-83
2022/05/16 06:07:49;;;;;;;7.68;3.92;;;;;;;37.54;31.76;95077.91;5073261;28;20194;-82
2022/05/16 06:10:17;;;;;;;4.88;3.88;;;;;;;38.35;31.10;95132.25;5073631;28;20194;-83
2022/05/16 06:12:43;;;;;;;5.85;4.10;;;;;;;38.77;30.25;95127.50;5083792;28;20752;-81
2022/05/16 06:15:13;;;;;;;8.85;4.00;;;;;;;39.04;29.75;95109.72;5082057;28;20564;-82
2022/05/16 06:17:40;;;;;;;7.35;3.88;;;;;;;39.53;29.14;95123.91;5081947;28;20676;-79
2022/05/16 06:20:10;;;;;;;8.68;4.05;;;;;;;39.74;29.09;95108.09;5076487;28;20691;-79
2022/05/16 06:22:38;;;;;;;9.05;4.35;;;;;;;40.22;28.10;95129.44;5076891;28;20190;-80
2022/05/16 06:27:51;;;;;;;7.03;3.55;;;;;;;40.82;27.50;95120.53;5074395;28;20567;-80
2022/05/16 06:30:19;;;;;;;7.72;4.07;;;;;;;41.19;26.78;95128.19;5072525;28;20205;-79
2022/05/16 06:32:46;;;;;;;5.60;3.88;;;;;;;41.40;26.66;95114.84;5073233;28;20284;-82
2022/05/16 06:35:15;;;;;;;18.15;4.93;;;;;;;41.58;26.42;95105.59;5072497;28;20878;-80
2022/05/16 06:37:41;;;;;;;8.88;4.53;;;;;;;41.78;26.31;95093.28;5073046;28;20217;-81
2022/05/16 06:40:09;;;;;;;7.75;4.30;;;;;;;42.10;25.67;95111.44;5072291;28;20301;-80
2022/05/16 06:42:37;;;;;;;13.15;4.63;;;;;;;42.27;25.61;95098.97;5072488;28;20201;-82
2022/05/16 06:45:05;;;;;;;6.00;4.43;;;;;;;42.27;25.23;95067.50;5072537;28;20193;-80
2022/05/16 06:47:33;;;;;;;6.95;4.57;;;;;;;42.70;24.98;95109.34;5074181;28;20567;-81
2022/05/16 06:50:00;;;;;;;7.60;4.35;;;;;;;42.29;24.50;95008.81;5075003;28;20182;-84
2022/05/16 06:52:28;;;;;;;8.68;4.40;;;;;;;43.22;24.78;95127.63;5076850;28;20182;-84
2022/05/16 06:54:55;;;;;;;8.60;4.10;;;;;;;43.39;24.71;95129.31;5088088;28;20224;-84
2022/05/16 06:57:21;;;;;;;7.97;4.43;;;;;;;43.55;24.00;95134.84;5085907;28;20333;-83
2022/05/16 06:59:48;;;;;;;7.85;4.60;;;;;;;43.69;23.99;95129.13;5083270;28;20213;-84
2022/05/16 07:02:15;;;;;;;6.43;4.38;;;;;;;43.85;24.06;95137.31;5078829;28;20189;-82
2022/05/16 07:04:42;;;;;;;10.30;4.43;;;;;;;43.74;23.62;95100.03;5072919;28;20186;-82
2022/05/16 07:07:10;;;;;;;6.30;4.07;;;;;;;43.48;23.11;95029.56;5073223;28;20192;-85
2022/05/16 07:09:39;;;;;;;5.95;3.90;;;;;;;44.24;22.92;95130.41;5074315;28;20201;-84
2022/05/16 07:12:07;;;;;;;7.53;4.15;;;;;;;44.17;23.06;95103.19;5073974;28;20218;-82
2022/05/16 07:14:34;;;;;;;8.57;4.20;;;;;;;44.37;22.56;95113.03;5073236;28;20631;-82
2022/05/16 07:17:01;;;;;;;4.90;3.97;;;;;;;44.52;22.78;95125.81;5072036;28;20217;-81
2022/05/16 07:19:31;;;;;;;6.00;3.75;;;;;;;44.21;22.46;95060.94;5071722;28;20221;-82
2022/05/16 07:21:58;;;;;;;4.03;3.60;;;;;;;44.66;22.03;95130.03;5071817;28;20181;-82
2022/05/16 07:24:25;;;;;;;8.88;4.13;;;;;;;44.71;22.58;95116.28;5071352;28;20269;-82
2022/05/16 07:29:37;;;;;;;5.75;4.18;;;;;;;44.77;22.33;95120.28;5071906;28;20199;-82
2022/05/16 07:32:05;;;;;;;6.28;3.58;;;;;;;44.72;21.76;95104.34;5071077;28;20255;-82
2022/05/16 07:34:32;;;;;;;8.82;4.13;;;;;;;44.84;22.15;95120.47;5071067;28;20189;-80
2022/05/16 07:37:00;;;;;;;8.35;3.95;;;;;;;44.85;21.95;95122.03;5071229;28;20199;-82
2022/05/16 07:39:27;;;;;;;9.60;3.88;;;;;;;44.58;22.14;95069.66;5070702;28;20221;-83
2022/05/16 07:41:55;;;;;;;5.88;4.00;;;;;;;44.68;22.25;95085.38;5070806;28;20232;-82
2022/05/16 07:44:22;;;;;;;5.80;4.13;;;;;;;44.89;22.25;95108.66;5071214;28;20193;-82
2022/05/16 07:46:49;;;;;;;8.85;3.90;;;;;;;44.89;21.58;95104.03;5071275;28;20193;-83
2022/05/16 07:49:17;;;;;;;9.00;4.20;;;;;;;44.78;21.63;95094.88;5070969;28;20224;-82
2022/05/16 07:51:44;;;;;;;7.35;4.57;;;;;;;44.74;21.87;95092.09;5071381;28;20186;-81
2022/05/16 07:54:10;;;;;;;5.15;4.65;;;;;;;44.73;21.26;95116.72;5071122;28;20190;-82
2022/05/16 07:56:38;;;;;;;4.22;3.30;;;;;;;44.54;22.34;95123.53;5071281;28;20728;-85
2022/05/16 07:59:06;;;;;;;6.22;3.83;;;;;;;44.42;22.24;95112.78;5071334;28;20230;-85
2022/05/16 08:01:33;;;;;;;8.02;3.85;;;;;;;44.31;21.87;95117.91;5070808;28;20236;-82
2022/05/16 08:04:00;;;;;;;5.30;3.83;;;;;;;44.24;21.49;95116.91;5070862;28;20197;-83
2022/05/16 08:06:27;;;;;;;3.88;3.50;;;;;;;44.17;21.34;95122.06;5070487;28;20185;-82
2022/05/16 08:11:38;;;;;;;5.07;3.30;;;;;;;43.91;20.91;95098.22;5071058;28;20204;-82
2022/05/16 08:14:06;;;;;;;3.42;2.88;;;;;;;43.94;21.39;95114.50;5070054;28;20189;-80
2022/05/16 08:16:33;;;;;;;6.00;3.00;;;;;;;43.82;21.20;95109.88;5070600;28;20648;-82
2022/05/16 08:19:00;;;;;;;3.78;2.47;;;;;;;43.72;21.20;95099.56;5070783;28;20217;-83
2022/05/16 08:21:27;;;;;;;3.75;3.30;;;;;;;43.63;20.90;95107.00;5070675;28;20209;-83
2022/05/16 08:23:54;;;;;;;5.05;3.10;;;;;;;43.52;21.19;95103.97;5070656;28;20189;-83
2022/05/16 08:26:21;;;;;;;3.85;2.70;;;;;;;43.42;21.10;95109.00;5070115;28;20190;-82
2022/05/16 08:28:48;;;;;;;5.10;2.70;;;;;;;43.28;20.82;95109.34;5070573;28;20264;-81
2022/05/16 08:31:16;;;;;;;4.97;2.50;;;;;;;43.15;21.09;95105.88;5070531;28;20196;-82
2022/05/16 08:33:43;;;;;;;5.72;2.85;;;;;;;43.01;20.68;95105.41;5070847;28;20224;-82
2022/05/16 08:41:51;;;;;;;2.88;2.20;;;;;;;42.52;20.90;95092.56;5070943;28;20173;-84
2022/05/16 08:44:22;;;;;;;5.07;2.63;;;;;;;42.30;20.98;95087.56;5070274;28;20197;-82
2022/05/16 08:47:01;;;;;;;4.82;2.60;;;;;;;42.05;20.67;95082.03;5072929;28;20200;-84
2022/05/16 08:49:33;;;;;;;6.18;2.35;;;;;;;41.71;20.46;95056.19;5070485;28;20224;-85
2022/05/16 08:52:08;;;;;;;2.30;2.10;;;;;;;41.65;20.64;95073.63;5070290;28;20212;-83
2022/05/16 08:54:42;;;;;;;2.28;1.92;;;;;;;41.61;20.36;95086.13;5071725;28;20185;-84
2022/05/16 08:57:15;;;;;;;3.33;2.10;;;;;;;41.43;20.47;95088.16;5083773;28;20216;-82
2022/05/16 08:59:46;;;;;;;2.75;2.15;;;;;;;41.28;20.37;95085.97;5075303;28;20249;-83
2022/05/16 09:02:20;;;;;;;2.97;1.95;;;;;;;40.62;20.27;95013.94;5072863;28;20224;-83
2022/05/16 09:04:51;;;;;;;2.20;2.00;;;;;;;40.92;20.37;95089.88;5072578;28;20656;-84
2022/05/16 09:07:27;;;;;;;2.40;1.55;;;;;;;40.76;20.22;95088.84;5071163;28;20190;-85
2022/05/16 09:10:01;;;;;;;3.35;1.90;;;;;;;40.44;20.25;95066.78;5071378;28;20189;-83
2022/05/16 09:12:34;;;;;;;4.28;1.75;;;;;;;39.85;20.63;94999.53;5070835;28;20198;-82
2022/05/16 09:15:11;;;;;;;2.75;1.83;;;;;;;40.23;20.46;95079.28;5070181;28;20291;-82
2022/05/16 09:17:53;;;;;;;5.28;2.03;;;;;;;40.04;20.35;95080.38;5070090;28;20577;-82
2022/05/16 09:20:33;;;;;;;2.63;1.75;;;;;;;39.59;20.21;95045.00;5070010;28;20210;-81
2022/05/16 09:23:10;;;;;;;1.70;1.60;;;;;;;39.68;20.60;95072.63;5069991;28;20191;-81
2022/05/16 09:25:49;;;;;;;3.70;1.77;;;;;;;38.88;20.63;94991.63;5070012;28;20196;-81
2022/05/16 09:31:06;;;;;;;3.83;1.98;;;;;;;38.51;21.17;94974.94;5070726;28;20201;-81
2022/05/16 09:33:38;;;;;;;3.03;1.60;;;;;;;38.91;20.92;95073.16;5070416;28;20209;-82
2022/05/16 09:36:07;;;;;;;3.88;1.80;;;;;;;38.72;21.20;95074.13;5070134;28;20277;-81
2022/05/16 09:38:35;;;;;;;5.93;1.85;;;;;;;38.52;21.51;95064.75;5070635;28;20178;-83
2022/05/16 09:41:14;;;;;;;3.60;2.13;;;;;;;38.32;21.41;95066.03;5069796;28;20229;-81
2022/05/16 09:43:44;;;;;;;3.67;2.03;;;;;;;37.97;21.28;95034.78;5070271;28;20190;-80
2022/05/16 09:46:29;;;;;;;1.75;1.65;;;;;;;37.90;21.25;95059.25;5069925;28;20187;-82
2022/05/16 09:49:04;;;;;;;3.63;1.95;;;;;;;36.76;21.02;94909.00;5068832;28;20194;-82
2022/05/16 09:51:31;;;;;;;4.68;1.80;;;;;;;37.37;21.07;95049.13;5069495;28;20194;-83
2022/05/16 09:54:11;;;;;;;4.75;1.80;;;;;;;36.87;21.46;95004.47;5070260;28;20221;-79
2022/05/16 09:56:38;;;;;;;3.03;2.13;;;;;;;36.95;21.63;95042.22;5072985;28;20226;-82
2022/05/16 09:59:05;;;;;;;1.90;1.80;;;;;;;36.58;22.03;95007.41;5076112;28;20201;-83
2022/05/16 10:01:37;;;;;;;6.15;1.90;;;;;;;36.43;22.13;95007.66;5069521;28;20273;-81
2022/05/16 10:04:14;;;;;;;1.85;1.70;;;;;;;36.42;21.86;95027.41;5070912;28;20619;-82
2022/05/16 10:06:44;;;;;;;4.20;1.70;;;;;;;35.64;21.93;94933.84;5072927;28;20178;-82
2022/05/16 10:09:14;;;;;;;2.92;1.90;;;;;;;36.06;22.12;95019.22;5072990;28;20584;-82
2022/05/16 10:11:43;;;;;;;3.60;2.53;;;;;;;35.89;22.25;95014.38;5072764;28;20233;-80
2022/05/16 10:14:11;;;;;;;4.75;1.90;;;;;;;35.71;22.24;95015.97;5073135;28;20183;-81
2022/05/16 10:16:40;;;;;;;4.25;1.88;;;;;;;33.88;22.26;94750.59;5072725;28;20623;-82
2022/05/16 10:19:11;;;;;;;3.13;1.80;;;;;;;35.36;22.42;95007.34;5073830;28;20198;-83
2022/05/16 10:21:42;;;;;;;4.10;2.10;;;;;;;34.50;22.46;94886.13;5073880;28;20195;-81
2022/05/16 10:24:12;;;;;;;2.97;2.08;;;;;;;35.10;22.87;94998.91;5073040;28;20195;-83
2022/05/16 10:26:43;;;;;;;3.42;1.75;;;;;;;34.73;23.21;94961.59;5073279;28;20562;-81
2022/05/16 10:29:14;;;;;;;3.28;2.00;;;;;;;34.72;23.24;94967.97;5073823;28;20197;-83
2022/05/16 10:34:47;;;;;;;3.63;1.98;;;;;;;34.36;23.34;94945.22;5051647;28;20182;-83
2022/05/16 10:37:16;;;;;;;1.95;1.80;;;;;;;34.54;23.77;94988.09;5050951;28;20843;-82
2022/05/16 10:39:49;;;;;;;2.55;1.60;;;;;;;34.45;23.76;94978.06;5050999;28;20233;-83
2022/05/16 10:42:23;;;;;;;2.13;1.90;;;;;;;33.59;23.79;94868.13;5054915;28;20258;-82
2022/05/16 10:45:04;;;;;;;1.70;1.60;;;;;;;33.85;23.75;94907.72;5051328;28;20201;-82
2022/05/16 10:47:35;;;;;;;3.28;2.20;;;;;;;33.91;23.90;94925.19;5050979;28;20195;-84
2022/05/16 10:50:06;;;;;;;3.53;2.13;;;;;;;33.17;24.07;94821.00;5050528;28;20202;-82
2022/05/16 10:52:40;;;;;;;4.25;2.05;;;;;;;33.63;24.05;94916.13;5050258;28;20209;-80
2022/05/16 10:55:08;;;;;;;3.53;2.05;;;;;;;33.59;24.21;94910.56;5050095;28;20727;-83
2022/05/16 10:57:56;;;;;;;3.90;2.15;;;;;;;33.89;24.50;94959.94;5049959;28;20219;-82
2022/05/16 11:00:33;;;;;;;2.22;2.03;;;;;;;33.82;24.34;94961.34;5049748;28;20234;-83
2022/05/16 11:03:20;;;;;;;2.53;1.90;;;;;;;33.75;24.44;94969.63;5049932;28;20190;-82
2022/05/16 11:06:05;;;;;;;2.35;1.90;;;;;;;33.47;24.25;94935.88;5050048;28;20262;-82
2022/05/16 11:08:42;;;;;;;2.22;1.70;;;;;;;33.58;24.40;94956.75;5049638;28;20226;-82
2022/05/16 11:11:25;;;;;;;2.95;1.90;;;;;;;33.31;24.57;94929.84;5067467;28;20193;-85
2022/05/16 11:14:02;;;;;;;2.95;2.03;;;;;;;33.37;24.41;94947.31;5072191;28;20190;-81
2022/05/16 11:16:33;;;;;;;4.78;2.05;;;;;;;33.25;24.77;94945.00;5071831;28;20255;-82
2022/05/16 11:19:20;;;;;;;4.72;1.98;;;;;;;32.99;24.89;94917.03;5072282;28;20233;-81
2022/05/16 11:21:53;;;;;;;2.17;1.95;;;;;;;33.07;24.86;94951.69;5071602;28;20214;-82
2022/05/16 11:24:33;;;;;;;3.72;1.80;;;;;;;33.00;24.88;94951.22;5071839;28;20178;-83
2022/05/16 11:27:12;;;;;;;2.78;1.90;;;;;;;32.15;24.79;94832.03;5071624;28;20239;-82
2022/05/16 11:29:46;;;;;;;2.05;1.63;;;;;;;32.47;25.33;94887.28;5071709;28;20182;-82
2022/05/16 11:32:30;;;;;;;3.72;1.80;;;;;;;32.77;25.30;94939.34;5071918;28;20197;-83
2022/05/16 11:35:05;;;;;;;3.75;1.92;;;;;;;32.53;25.38;94907.41;5072678;28;20190;-82
2022/05/16 11:37:52;;;;;;;2.63;1.90;;;;;;;31.97;25.29;94833.44;5075718;28;20194;-82
2022/05/16 11:40:26;;;;;;;6.70;2.08;;;;;;;32.58;25.67;94938.38;5071687;28;20540;-81
2022/05/16 11:43:02;;;;;;;1.80;1.70;;;;;;;32.52;25.21;94931.53;5071390;28;20222;-85
2022/05/16 11:45:38;;;;;;;2.08;1.85;;;;;;;32.44;25.64;94925.72;5071527;28;20194;-84
2022/05/16 11:48:23;;;;;;;3.70;2.05;;;;;;;31.80;25.40;94833.69;5071256;28;20197;-83
2022/05/16 11:50:58;;;;;;;1.92;1.73;;;;;;;30.78;25.64;94688.38;5071824;28;20186;-84
2022/05/16 11:53:44;;;;;;;4.70;2.05;;;;;;;32.27;25.75;94919.09;5072097;28;20194;-81
2022/05/16 12:02:17;;;;;;;2.45;1.67;;;;;;;32.04;25.71;94915.97;5073158;28;20213;-83
2022/05/16 12:04:47;;;;;;;3.40;1.80;;;;;;;31.99;25.65;94905.38;5073279;28;20194;-83
2022/05/16 12:07:24;;;;;;;2.00;1.80;;;;;;;31.93;25.73;94901.94;5071815;28;20276;-84
2022/05/16 12:09:55;;;;;;;3.95;2.05;;;;;;;31.90;25.66;94902.47;5071487;28;20226;-83
2022/05/16 12:12:37;;;;;;;2.95;1.80;;;;;;;31.86;25.64;94890.84;5071740;28;20251;-84
2022/05/16 12:15:21;;;;;;;1.73;1.60;;;;;;;31.69;26.05;94869.97;5071018;28;20201;-81
2022/05/16 12:17:54;;;;;;;2.55;1.85;;;;;;;31.67;25.77;94865.97;5071321;28;20182;-84
2022/05/16 12:20:37;;;;;;;3.28;2.05;;;;;;;31.73;25.97;94878.13;5071243;28;20221;-83
2022/05/16 12:23:05;;;;;;;5.13;1.63;;;;;;;31.10;26.23;94785.88;5071741;28;20728;-82
2022/05/16 12:25:35;;;;;;;2.63;1.67;;;;;;;31.37;25.89;94835.06;5074481;28;20198;-81
2022/05/16 12:28:23;;;;;;;1.70;1.60;;;;;;;31.58;25.34;94876.28;5072021;28;20228;-81